Time;durP1;ratioP1;P1;durP2;ratioP2;P2;SDS_P1;SDS_P2;PMS_P1;PMS_P2;Temp;Humidity;BMP_temperature;BMP_pressure;BME280_temperature;BME280_humidity;BME280_pressure;Samples;Min_cycle;Max_cycle;Signal;HPM_P1;HPM_P2
2023/09/17 00:01:30;;;;;;;11.93;7.63;;;20.30;99.90;;;;;;4131695;28;20450;-68
2023/09/17 00:03:32;;;;;;;9.45;7.95;;;20.30;99.90;;;;;;4127644;28;20061;-69
2023/09/17 00:05:32;;;;;;;8.55;6.82;;;20.20;99.90;;;;;;4127435;28;20089;-68
2023/09/17 00:07:33;;;;;;;7.78;6.50;;;20.30;99.90;;;;;;4129643;28;20038;-68
2023/09/17 00:09:34;;;;;;;7.32;5.88;;;20.30;99.90;;;;;;4135849;28;20042;-68
2023/09/17 00:11:34;;;;;;;7.85;6.30;;;20.40;99.90;;;;;;4131975;28;20046;-68
2023/09/17 00:13:35;;;;;;;8.05;5.50;;;20.40;99.90;;;;;;4128760;28;20043;-67
2023/09/17 00:15:37;;;;;;;6.28;5.47;;;20.40;99.90;;;;;;4131003;28;20585;-68
2023/09/17 00:17:37;;;;;;;10.73;7.85;;;20.50;99.90;;;;;;4145836;28;20037;-68
2023/09/17 00:19:38;;;;;;;9.25;6.90;;;20.50;99.90;;;;;;4125297;28;20051;-68
2023/09/17 00:21:38;;;;;;;9.05;7.15;;;20.50;99.90;;;;;;4137986;28;20038;-68
2023/09/17 00:23:39;;;;;;;11.90;7.50;;;20.50;99.90;;;;;;4145571;28;20037;-68
2023/09/17 00:25:40;;;;;;;11.07;8.07;;;20.50;99.90;;;;;;4144179;28;20475;-68
2023/09/17 00:27:41;;;;;;;11.82;8.25;;;20.60;99.90;;;;;;4143675;28;20041;-68
2023/09/17 00:29:41;;;;;;;6.63;5.85;;;20.50;99.90;;;;;;4135348;28;20045;-68
2023/09/17 00:31:43;;;;;;;7.80;6.28;;;20.50;99.90;;;;;;4127004;28;20741;-68
2023/09/17 00:33:43;;;;;;;6.03;5.18;;;20.60;99.90;;;;;;4122704;28;20035;-68
2023/09/17 00:35:44;;;;;;;6.88;5.20;;;20.60;99.90;;;;;;4128267;28;20424;-68
2023/09/17 00:37:45;;;;;;;6.60;5.22;;;20.60;99.90;;;;;;4127523;28;20043;-68
2023/09/17 00:39:46;;;;;;;8.45;5.57;;;20.60;99.90;;;;;;4134938;28;20046;-68
2023/09/17 00:41:46;;;;;;;8.23;4.93;;;20.60;99.90;;;;;;4140880;28;20470;-68
2023/09/17 00:43:47;;;;;;;6.15;5.13;;;20.70;99.90;;;;;;4145349;28;20062;-68
2023/09/17 00:45:47;;;;;;;6.35;5.40;;;20.70;99.90;;;;;;4125604;28;20027;-68
2023/09/17 00:47:48;;;;;;;10.27;7.00;;;20.70;99.90;;;;;;4127866;28;20034;-69
2023/09/17 00:49:49;;;;;;;11.15;8.02;;;20.60;99.90;;;;;;4134795;28;20034;-70
2023/09/17 00:51:50;;;;;;;12.18;7.95;;;20.30;99.90;;;;;;4134404;28;20057;-70
2023/09/17 00:53:53;;;;;;;9.52;7.25;;;19.90;99.90;;;;;;4128895;28;21687;-70
2023/09/17 00:55:54;;;;;;;11.02;7.55;;;19.80;99.90;;;;;;4126009;28;20038;-70
2023/09/17 00:57:56;;;;;;;14.02;9.13;;;19.80;99.90;;;;;;4123612;28;20043;-70
2023/09/17 00:59:56;;;;;;;11.43;8.73;;;19.50;99.90;;;;;;4125521;28;20505;-65
2023/09/17 01:01:57;;;;;;;7.88;6.40;;;19.40;99.90;;;;;;4137639;28;20039;-69
2023/09/17 01:03:59;;;;;;;12.23;9.25;;;19.60;99.90;;;;;;4126440;28;20030;-66
2023/09/17 01:06:02;;;;;;;12.38;8.48;;;19.20;99.90;;;;;;4127803;28;20030;-66
2023/09/17 01:08:07;;;;;;;10.63;7.47;;;19.30;99.90;;;;;;4124974;28;20096;-66
2023/09/17 01:10:08;;;;;;;10.65;7.85;;;19.30;99.90;;;;;;4124907;28;20050;-66
2023/09/17 01:12:09;;;;;;;14.20;10.40;;;19.30;99.90;;;;;;4143953;28;20046;-66
2023/09/17 01:14:14;;;;;;;13.65;8.80;;;19.30;99.90;;;;;;4127335;28;20277;-66
2023/09/17 01:16:14;;;;;;;10.48;7.97;;;19.20;99.90;;;;;;4126814;28;20038;-67
2023/09/17 01:18:16;;;;;;;8.55;6.55;;;19.20;99.90;;;;;;4119426;28;20061;-67
2023/09/17 01:20:25;;;;;;;7.90;6.22;;;19.30;99.90;;;;;;4125853;28;20042;-67
2023/09/17 01:22:34;;;;;;;7.88;6.60;;;19.30;99.90;;;;;;4136649;28;20050;-67
2023/09/17 01:25:04;;;;;;;11.45;8.13;;;19.40;99.90;;;;;;4125411;28;20039;-66
2023/09/17 01:27:06;;;;;;;11.70;9.02;;;19.40;99.90;;;;;;4126461;28;20088;-66
2023/09/17 01:29:07;;;;;;;14.63;10.07;;;19.30;99.90;;;;;;4129522;28;20043;-66
2023/09/17 01:31:09;;;;;;;13.75;10.10;;;19.30;99.90;;;;;;4124687;28;20042;-66
2023/09/17 01:33:09;;;;;;;11.23;8.38;;;19.30;99.90;;;;;;4124436;28;20030;-66
2023/09/17 01:35:15;;;;;;;14.77;11.25;;;19.30;99.90;;;;;;4124965;28;20035;-70
2023/09/17 01:37:27;;;;;;;14.15;10.50;;;19.20;99.90;;;;;;4126891;28;20035;-66
2023/09/17 01:39:32;;;;;;;13.17;9.23;;;19.10;99.90;;;;;;4133506;28;20045;-66
2023/09/17 01:41:34;;;;;;;14.70;10.80;;;19.20;99.90;;;;;;4137271;28;20037;-66
2023/09/17 01:43:38;;;;;;;13.60;10.30;;;19.20;99.90;;;;;;4130977;28;20140;-67
2023/09/17 01:45:38;;;;;;;13.20;9.80;;;19.20;99.90;;;;;;4105532;28;20062;-67
2023/09/17 01:47:42;;;;;;;11.63;8.15;;;19.30;99.90;;;;;;4118267;28;20442;-66
2023/09/17 01:49:44;;;;;;;14.68;10.80;;;19.30;99.90;;;;;;4126699;28;20100;-66
2023/09/17 01:51:46;;;;;;;12.85;9.65;;;19.30;99.90;;;;;;4119856;28;20035;-66
2023/09/17 01:53:48;;;;;;;14.00;11.13;;;19.20;99.90;;;;;;4125418;28;20037;-66
2023/09/17 01:55:52;;;;;;;13.40;11.10;;;19.10;99.90;;;;;;4143210;28;20029;-66
2023/09/17 01:57:55;;;;;;;17.92;10.40;;;19.10;99.90;;;;;;4142360;28;20029;-66
2023/09/17 01:59:56;;;;;;;14.30;11.02;;;19.10;99.90;;;;;;4131480;28;20096;-66
2023/09/17 02:01:56;;;;;;;17.00;11.27;;;19.00;99.90;;;;;;4126413;28;20035;-66
2023/09/17 02:04:00;;;;;;;13.57;10.27;;;19.00;99.90;;;;;;4122477;28;20080;-66
2023/09/17 02:06:04;;;;;;;14.88;10.60;;;19.00;99.90;;;;;;4131651;28;20042;-65
2023/09/17 02:08:05;;;;;;;13.43;9.38;;;18.90;99.90;;;;;;4137655;28;20052;-66
2023/09/17 02:10:06;;;;;;;14.77;10.80;;;19.00;99.90;;;;;;4133131;28;20046;-65
2023/09/17 02:12:06;;;;;;;12.10;9.45;;;18.90;99.90;;;;;;4142586;28;20037;-65
2023/09/17 02:14:07;;;;;;;10.40;7.72;;;19.00;99.90;;;;;;4139366;28;20117;-65
2023/09/17 02:16:07;;;;;;;12.18;8.70;;;19.00;99.90;;;;;;4122793;28;20113;-65
2023/09/17 02:18:08;;;;;;;10.40;8.77;;;19.00;99.90;;;;;;4125506;28;20042;-66
2023/09/17 02:20:11;;;;;;;9.63;8.18;;;19.10;99.90;;;;;;4130177;28;20514;-66
2023/09/17 02:22:11;;;;;;;10.48;7.50;;;19.10;99.90;;;;;;4131164;28;20377;-66
2023/09/17 02:24:12;;;;;;;9.07;7.45;;;19.20;99.90;;;;;;4124847;28;20061;-65
2023/09/17 02:26:13;;;;;;;10.05;8.07;;;19.30;99.90;;;;;;4125542;28;20392;-65
2023/09/17 02:28:14;;;;;;;11.32;8.95;;;19.30;99.90;;;;;;4127451;28;20149;-65
2023/09/17 02:30:14;;;;;;;15.77;11.45;;;19.20;99.90;;;;;;4128790;28;20042;-65
2023/09/17 02:32:15;;;;;;;14.15;10.55;;;19.20;99.90;;;;;;4123818;28;20050;-65
2023/09/17 02:34:15;;;;;;;12.40;9.35;;;19.20;99.90;;;;;;4122308;28;20053;-65
2023/09/17 02:36:16;;;;;;;9.63;8.00;;;19.10;99.90;;;;;;4124379;28;20042;-65
2023/09/17 02:38:17;;;;;;;10.20;8.40;;;19.20;99.90;;;;;;4123202;28;20383;-65
2023/09/17 02:40:17;;;;;;;13.40;10.25;;;19.20;99.90;;;;;;4124971;28;20054;-65
2023/09/17 02:42:18;;;;;;;12.15;9.60;;;19.20;99.90;;;;;;4122497;28;20081;-65
2023/09/17 02:44:20;;;;;;;13.75;10.00;;;19.10;99.90;;;;;;4122168;28;20396;-65
2023/09/17 02:46:20;;;;;;;13.27;10.27;;;19.10;99.90;;;;;;4126629;28;20100;-64
2023/09/17 02:48:21;;;;;;;15.77;11.43;;;19.10;99.90;;;;;;4125142;28;20038;-64
2023/09/17 02:50:22;;;;;;;13.23;10.48;;;19.00;99.90;;;;;;4131699;28;20121;-65
2023/09/17 02:52:22;;;;;;;15.65;11.38;;;19.00;99.90;;;;;;4127370;28;20038;-65
2023/09/17 02:54:23;;;;;;;14.32;10.25;;;19.00;99.90;;;;;;4126182;28;20121;-65
2023/09/17 02:56:25;;;;;;;11.20;8.90;;;19.00;99.90;;;;;;4125468;28;20031;-65
2023/09/17 02:58:25;;;;;;;11.40;8.80;;;19.00;99.90;;;;;;4122690;28;20046;-65
2023/09/17 03:00:26;;;;;;;14.63;10.80;;;19.00;99.90;;;;;;4126636;28;20074;-65
2023/09/17 03:02:26;;;;;;;13.25;10.77;;;19.00;99.90;;;;;;4126833;28;20829;-65
2023/09/17 03:04:28;;;;;;;12.57;10.60;;;19.00;99.90;;;;;;4124779;28;20030;-65
2023/09/17 03:06:30;;;;;;;11.57;8.85;;;19.00;99.90;;;;;;4126589;28;20471;-65
2023/09/17 03:08:31;;;;;;;12.35;9.45;;;19.10;99.90;;;;;;4126950;28;20124;-65
2023/09/17 03:10:32;;;;;;;15.27;10.45;;;19.10;99.90;;;;;;4136602;28;20042;-64
2023/09/17 03:12:33;;;;;;;12.75;10.02;;;19.00;99.90;;;;;;4141864;28;20064;-65
2023/09/17 03:14:33;;;;;;;15.95;11.63;;;19.00;99.90;;;;;;4137158;28;20471;-65
2023/09/17 03:16:34;;;;;;;16.17;12.23;;;18.90;99.90;;;;;;4126333;28;20090;-65
2023/09/17 03:18:35;;;;;;;13.50;10.43;;;18.80;99.90;;;;;;4123752;28;20035;-66
2023/09/17 03:20:38;;;;;;;14.40;11.00;;;18.80;99.90;;;;;;4128272;28;20052;-71
2023/09/17 03:22:38;;;;;;;15.05;11.63;;;18.80;99.90;;;;;;4127262;28;20031;-71
2023/09/17 03:24:39;;;;;;;17.13;11.82;;;18.70;99.90;;;;;;4126242;28;20061;-72
2023/09/17 03:26:41;;;;;;;17.08;12.27;;;18.60;99.90;;;;;;4127490;28;20066;-72
2023/09/17 03:28:41;;;;;;;15.35;12.02;;;18.50;99.90;;;;;;4127410;28;20042;-72
2023/09/17 03:30:43;;;;;;;12.40;9.65;;;18.50;99.90;;;;;;4140583;28;20091;-72
2023/09/17 03:32:43;;;;;;;13.30;8.65;;;18.60;99.90;;;;;;4141920;28;20038;-72
2023/09/17 03:34:44;;;;;;;12.10;8.70;;;18.60;99.90;;;;;;4128498;28;20510;-72
2023/09/17 03:36:44;;;;;;;12.65;9.63;;;18.70;99.90;;;;;;4127889;28;20098;-72
2023/09/17 03:38:45;;;;;;;15.13;10.18;;;18.70;99.90;;;;;;4127282;28;20502;-72
2023/09/17 03:40:46;;;;;;;14.00;10.82;;;18.70;99.90;;;;;;4137943;28;20091;-72
2023/09/17 03:42:47;;;;;;;14.60;10.82;;;18.70;99.90;;;;;;4135327;28;20439;-72
2023/09/17 03:44:47;;;;;;;18.42;13.23;;;18.70;99.90;;;;;;4122712;28;20046;-72
2023/09/17 03:46:48;;;;;;;15.00;10.88;;;18.50;99.90;;;;;;4126591;28;20070;-72
2023/09/17 03:48:49;;;;;;;17.17;11.75;;;18.50;99.90;;;;;;4125527;28;20030;-72
2023/09/17 03:50:50;;;;;;;13.73;10.93;;;18.50;99.90;;;;;;4138191;28;20072;-72
2023/09/17 03:52:54;;;;;;;18.05;13.02;;;18.50;99.90;;;;;;4131776;28;20054;-72
2023/09/17 03:54:55;;;;;;;13.02;9.70;;;18.30;99.90;;;;;;4128809;28;20038;-72
2023/09/17 03:56:56;;;;;;;12.63;9.02;;;18.40;99.90;;;;;;4127631;28;20045;-72
2023/09/17 03:58:56;;;;;;;14.80;10.25;;;18.40;99.90;;;;;;4128926;28;20132;-72
2023/09/17 04:00:57;;;;;;;13.82;9.23;;;18.40;99.90;;;;;;4140605;28;20056;-72
2023/09/17 04:02:59;;;;;;;12.82;9.77;;;18.40;99.90;;;;;;4129185;28;20372;-72
2023/09/17 04:05:00;;;;;;;13.90;9.98;;;18.40;99.90;;;;;;4126723;28;20027;-72
2023/09/17 04:07:02;;;;;;;12.02;9.65;;;18.40;99.90;;;;;;4128715;28;20045;-72
2023/09/17 04:09:04;;;;;;;15.15;10.80;;;18.40;99.90;;;;;;4129660;28;20053;-72
2023/09/17 04:11:04;;;;;;;18.45;12.50;;;18.30;99.90;;;;;;4133072;28;20041;-72
2023/09/17 04:13:06;;;;;;;15.32;10.18;;;18.30;99.90;;;;;;4126754;28;20427;-72
2023/09/17 04:15:13;;;;;;;13.00;10.33;;;18.30;99.90;;;;;;4128981;28;20475;-73
2023/09/17 04:17:14;;;;;;;11.25;8.57;;;18.30;99.90;;;;;;4124430;28;20148;-73
2023/09/17 04:19:15;;;;;;;13.00;9.20;;;18.40;99.90;;;;;;4132929;28;20050;-72
2023/09/17 04:21:16;;;;;;;10.30;7.82;;;18.40;99.90;;;;;;4140527;28;20065;-72
2023/09/17 04:23:17;;;;;;;13.30;9.93;;;18.50;99.90;;;;;;4144150;28;20042;-72
2023/09/17 04:25:19;;;;;;;9.18;7.53;;;18.50;99.90;;;;;;4141323;28;20095;-72
2023/09/17 04:27:20;;;;;;;13.07;9.85;;;18.60;99.90;;;;;;4129020;28;20030;-72
2023/09/17 04:29:21;;;;;;;15.02;11.20;;;18.50;99.90;;;;;;4132045;28;20044;-67
2023/09/17 04:31:21;;;;;;;15.05;10.63;;;18.40;99.90;;;;;;4139257;28;24875;-67
2023/09/17 04:33:22;;;;;;;16.85;12.13;;;18.40;99.90;;;;;;4127667;28;20073;-67
2023/09/17 04:35:23;;;;;;;15.02;10.93;;;18.30;99.90;;;;;;4125892;28;20034;-67
2023/09/17 04:37:24;;;;;;;15.52;10.93;;;18.30;99.90;;;;;;4126132;28;20439;-67
2023/09/17 04:39:25;;;;;;;13.55;10.35;;;18.30;99.90;;;;;;4131569;28;20053;-67
2023/09/17 04:41:26;;;;;;;15.40;11.15;;;18.30;99.90;;;;;;4138213;28;20041;-67
2023/09/17 04:43:27;;;;;;;14.40;9.85;;;18.30;99.90;;;;;;4128781;28;20065;-67
2023/09/17 04:45:32;;;;;;;17.25;12.30;;;18.30;99.90;;;;;;4125413;28;20073;-67
2023/09/17 04:47:34;;;;;;;16.33;10.85;;;18.20;99.90;;;;;;4122634;28;20118;-68
2023/09/17 04:49:37;;;;;;;15.25;10.77;;;18.20;99.90;;;;;;4129434;28;20414;-67
2023/09/17 04:51:37;;;;;;;13.55;9.82;;;18.30;99.90;;;;;;4138502;28;20034;-67
2023/09/17 04:53:38;;;;;;;12.93;10.05;;;18.20;99.90;;;;;;4136848;28;20066;-67
2023/09/17 04:55:39;;;;;;;16.83;11.18;;;18.30;99.90;;;;;;4130562;28;20034;-67
2023/09/17 04:57:39;;;;;;;13.05;10.77;;;18.20;99.90;;;;;;4127461;28;20027;-67
2023/09/17 04:59:40;;;;;;;15.55;11.63;;;18.30;99.90;;;;;;4134019;28;20050;-67
2023/09/17 05:01:41;;;;;;;12.85;9.90;;;18.30;99.90;;;;;;4135288;28;20067;-67
2023/09/17 05:03:42;;;;;;;14.25;10.32;;;18.30;99.90;;;;;;4127838;28;20530;-68
2023/09/17 05:05:42;;;;;;;17.08;12.50;;;18.30;99.90;;;;;;4119355;28;20073;-67
2023/09/17 05:07:43;;;;;;;15.82;11.50;;;18.30;99.90;;;;;;4127557;28;20026;-67
2023/09/17 05:09:44;;;;;;;19.05;13.50;;;18.30;99.90;;;;;;4134596;28;20042;-67
2023/09/17 05:11:44;;;;;;;18.08;12.73;;;18.20;99.90;;;;;;4128226;28;20046;-67
2023/09/17 05:13:45;;;;;;;17.40;12.75;;;18.20;99.90;;;;;;4123916;28;20502;-67
2023/09/17 05:15:45;;;;;;;16.48;12.98;;;18.20;99.90;;;;;;4127384;28;20038;-67
2023/09/17 05:17:46;;;;;;;15.52;12.48;;;18.20;99.90;;;;;;4125716;28;20437;-67
2023/09/17 05:19:47;;;;;;;16.52;12.80;;;18.20;99.90;;;;;;4127751;28;20047;-67
2023/09/17 05:21:47;;;;;;;13.52;10.35;;;18.20;99.90;;;;;;4128679;28;20482;-67
2023/09/17 05:23:48;;;;;;;14.32;10.57;;;18.20;99.90;;;;;;4124970;28;20104;-67
2023/09/17 05:25:49;;;;;;;15.50;11.70;;;18.30;99.90;;;;;;4123145;28;20542;-67
2023/09/17 05:27:49;;;;;;;11.77;9.77;;;18.30;99.90;;;;;;4125562;28;20043;-67
2023/09/17 05:29:50;;;;;;;17.25;10.65;;;18.40;99.90;;;;;;4126276;28;20056;-67
2023/09/17 05:31:51;;;;;;;15.50;11.80;;;18.40;99.90;;;;;;4128645;28;20113;-67
2023/09/17 05:33:53;;;;;;;14.05;10.48;;;18.30;99.90;;;;;;4125125;28;20039;-67
2023/09/17 05:35:56;;;;;;;16.48;11.82;;;18.40;99.90;;;;;;4120870;28;20050;-67
2023/09/17 05:37:57;;;;;;;20.52;12.32;;;18.30;99.90;;;;;;4122454;28;20395;-66
2023/09/17 05:39:58;;;;;;;14.50;10.60;;;18.30;99.90;;;;;;4115392;28;20052;-65
2023/09/17 05:41:59;;;;;;;17.92;12.13;;;18.40;99.90;;;;;;4128014;28;20062;-65
2023/09/17 05:44:00;;;;;;;11.15;9.63;;;18.30;99.90;;;;;;4116441;28;20030;-65
2023/09/17 05:46:01;;;;;;;15.73;11.57;;;18.40;99.90;;;;;;4125612;28;20560;-65
2023/09/17 05:48:02;;;;;;;12.93;8.48;;;18.40;99.90;;;;;;4124829;28;20355;-65
2023/09/17 05:50:03;;;;;;;11.40;8.82;;;18.50;99.90;;;;;;4116952;28;20376;-67
2023/09/17 05:52:04;;;;;;;14.07;10.80;;;18.50;99.90;;;;;;4120476;28;20122;-66
2023/09/17 05:54:05;;;;;;;12.52;9.18;;;18.60;99.90;;;;;;4114293;28;20038;-66
2023/09/17 05:56:07;;;;;;;14.00;10.10;;;18.60;99.90;;;;;;4121053;28;20049;-66
2023/09/17 05:58:09;;;;;;;14.23;10.40;;;18.60;99.90;;;;;;4119460;28;20122;-66
2023/09/17 06:00:10;;;;;;;15.05;11.73;;;18.60;99.90;;;;;;4132531;28;20073;-67
2023/09/17 06:02:11;;;;;;;16.65;11.50;;;18.60;99.90;;;;;;4125579;28;20072;-66
2023/09/17 06:04:12;;;;;;;12.38;10.50;;;18.60;99.90;;;;;;4123112;28;20027;-66
2023/09/17 06:06:12;;;;;;;10.50;8.32;;;18.60;99.90;;;;;;4126630;28;20035;-65
2023/09/17 06:08:13;;;;;;;14.02;10.43;;;18.70;99.90;;;;;;4127134;28;20559;-65
2023/09/17 06:10:14;;;;;;;10.48;8.15;;;18.70;99.90;;;;;;4130798;28;20039;-66
2023/09/17 06:12:15;;;;;;;12.90;10.23;;;18.80;99.90;;;;;;4144120;28;20113;-66
2023/09/17 06:14:16;;;;;;;14.98;10.45;;;18.70;99.90;;;;;;4139565;28;20045;-65
2023/09/17 06:16:16;;;;;;;12.85;8.73;;;18.70;99.90;;;;;;4127372;28;20035;-66
2023/09/17 06:18:17;;;;;;;10.98;8.57;;;18.80;99.90;;;;;;4124563;28;20414;-66
2023/09/17 06:20:18;;;;;;;11.75;8.90;;;18.80;99.90;;;;;;4128129;28;20125;-65
2023/09/17 06:22:19;;;;;;;8.98;7.28;;;18.80;99.90;;;;;;4140166;28;20486;-65
2023/09/17 06:24:19;;;;;;;11.70;9.32;;;18.90;99.90;;;;;;4140888;28;20034;-65
2023/09/17 06:26:20;;;;;;;9.68;7.57;;;18.90;99.90;;;;;;4128373;28;20034;-65
2023/09/17 06:28:20;;;;;;;8.68;7.03;;;19.00;99.90;;;;;;4143603;28;20501;-65
2023/09/17 06:30:22;;;;;;;11.52;7.32;;;19.10;99.90;;;;;;4124309;28;20108;-68
2023/09/17 06:32:22;;;;;;;8.98;7.20;;;19.10;99.90;;;;;;4130551;28;20034;-66
2023/09/17 06:34:23;;;;;;;9.38;7.65;;;19.20;99.90;;;;;;4124248;28;20046;-66
2023/09/17 06:36:24;;;;;;;10.35;8.95;;;19.20;99.90;;;;;;4141579;28;20087;-65
2023/09/17 06:38:24;;;;;;;10.68;8.35;;;19.30;99.90;;;;;;4113997;28;20054;-65
2023/09/17 06:40:25;;;;;;;11.15;7.28;;;19.30;99.90;;;;;;4124622;28;20053;-66
2023/09/17 06:42:25;;;;;;;14.32;9.60;;;19.40;99.90;;;;;;4126286;28;20034;-65
2023/09/17 06:44:26;;;;;;;10.82;8.52;;;19.40;99.90;;;;;;4123231;28;20026;-66
2023/09/17 06:46:27;;;;;;;10.70;8.52;;;19.50;99.90;;;;;;4123818;28;20042;-66
2023/09/17 06:48:27;;;;;;;11.00;8.05;;;19.50;99.90;;;;;;4127720;28;20129;-68
2023/09/17 06:50:28;;;;;;;13.45;9.73;;;19.50;99.90;;;;;;4132751;28;20053;-76
2023/09/17 06:52:29;;;;;;;17.02;11.07;;;19.60;99.90;;;;;;4134054;28;20026;-77
2023/09/17 06:54:29;;;;;;;16.50;10.65;;;19.60;99.90;;;;;;4122725;28;20034;-77
2023/09/17 06:56:30;;;;;;;14.63;10.70;;;19.60;99.90;;;;;;4132054;28;20610;-77
2023/09/17 06:58:30;;;;;;;14.50;9.80;;;19.60;99.90;;;;;;4128823;28;20042;-78
2023/09/17 07:00:31;;;;;;;12.68;8.93;;;19.70;99.90;;;;;;4133169;28;20117;-78
2023/09/17 07:02:32;;;;;;;13.57;8.95;;;19.70;99.90;;;;;;4138132;28;20069;-77
2023/09/17 07:04:32;;;;;;;13.30;9.63;;;19.80;99.90;;;;;;4131606;28;20778;-77
2023/09/17 07:06:33;;;;;;;15.13;10.50;;;19.80;99.90;;;;;;4128737;28;20058;-76
2023/09/17 07:08:35;;;;;;;17.70;11.27;;;19.80;99.90;;;;;;4129574;28;20471;-77
2023/09/17 07:10:36;;;;;;;16.02;12.00;;;19.80;99.90;;;;;;4134993;28;20034;-77
2023/09/17 07:12:40;;;;;;;12.97;9.50;;;19.80;99.90;;;;;;4132049;28;20587;-77
2023/09/17 07:14:41;;;;;;;12.48;9.05;;;19.80;99.90;;;;;;4127183;28;20045;-77
2023/09/17 07:16:42;;;;;;;14.18;9.93;;;19.90;99.90;;;;;;4137599;28;20486;-77
2023/09/17 07:18:44;;;;;;;13.32;9.73;;;19.90;99.90;;;;;;4140857;28;20066;-77
2023/09/17 07:20:45;;;;;;;10.17;8.20;;;20.00;99.90;;;;;;4126379;28;20042;-77
2023/09/17 07:22:48;;;;;;;11.98;9.48;;;19.90;99.90;;;;;;4125145;28;20281;-77
2023/09/17 07:24:55;;;;;;;;;;;20.00;99.90;;;;;;4128577;28;20038;-77
2023/09/17 07:26:56;;;;;;;13.20;9.80;;;20.00;99.90;;;;;;4126147;28;20000;-77
2023/09/17 07:28:57;;;;;;;12.32;8.73;;;20.10;99.90;;;;;;4121455;28;20043;-76
2023/09/17 07:30:57;;;;;;;12.15;8.20;;;20.10;99.90;;;;;;4127091;28;20049;-78
2023/09/17 07:32:58;;;;;;;11.73;9.23;;;20.20;99.90;;;;;;4139852;28;20453;-77
2023/09/17 07:35:02;;;;;;;11.70;8.38;;;20.20;99.90;;;;;;4128626;28;20038;-77
2023/09/17 07:37:04;;;;;;;11.65;9.13;;;20.30;99.90;;;;;;4129397;28;20475;-76
2023/09/17 07:39:05;;;;;;;11.75;9.27;;;20.30;99.90;;;;;;4128905;28;20039;-77
2023/09/17 07:41:06;;;;;;;16.13;11.98;;;20.30;99.90;;;;;;4129205;28;20126;-77
2023/09/17 07:43:06;;;;;;;14.07;9.63;;;20.40;99.90;;;;;;4129644;28;20123;-77
2023/09/17 07:45:08;;;;;;;12.18;9.27;;;20.40;99.90;;;;;;4126852;28;20092;-77
2023/09/17 07:47:09;;;;;;;11.55;8.45;;;20.40;99.90;;;;;;4128067;28;20158;-77
2023/09/17 07:49:10;;;;;;;13.60;10.53;;;20.50;99.90;;;;;;4131356;28;20046;-77
2023/09/17 07:51:10;;;;;;;14.57;10.15;;;20.50;99.90;;;;;;4128185;28;20125;-77
2023/09/17 07:53:11;;;;;;;13.63;10.20;;;20.50;99.90;;;;;;4128064;28;20042;-77
2023/09/17 07:55:12;;;;;;;12.15;9.65;;;20.50;99.90;;;;;;4119295;28;20502;-77
2023/09/17 07:57:13;;;;;;;14.20;10.57;;;20.60;99.90;;;;;;4125761;28;20101;-78
2023/09/17 07:59:13;;;;;;;12.88;9.90;;;20.60;99.90;;;;;;4127123;28;20046;-77
2023/09/17 08:01:15;;;;;;;12.25;9.48;;;20.60;99.90;;;;;;4124677;28;20046;-78
2023/09/17 08:03:16;;;;;;;13.95;9.82;;;20.60;99.90;;;;;;4129736;28;20034;-78
2023/09/17 08:05:17;;;;;;;11.77;9.23;;;20.70;99.90;;;;;;4126069;28;20562;-77
2023/09/17 08:07:18;;;;;;;11.32;9.35;;;20.70;99.90;;;;;;4127448;28;20031;-78
2023/09/17 08:09:19;;;;;;;12.70;9.45;;;20.70;99.90;;;;;;4137830;28;20482;-78
2023/09/17 08:11:21;;;;;;;11.93;9.32;;;20.70;99.90;;;;;;4143273;28;20037;-79
2023/09/17 08:13:22;;;;;;;10.82;8.65;;;20.80;99.90;;;;;;4139667;28;20030;-79
2023/09/17 08:15:23;;;;;;;12.25;9.82;;;20.80;99.90;;;;;;4120508;28;20089;-78
2023/09/17 08:17:24;;;;;;;11.98;8.88;;;20.80;99.90;;;;;;4125069;28;20125;-78
2023/09/17 08:19:24;;;;;;;15.98;9.23;;;20.90;99.90;;;;;;4127632;28;20066;-78
2023/09/17 08:21:26;;;;;;;8.75;7.28;;;20.90;99.90;;;;;;4122531;28;20395;-77
2023/09/17 08:23:26;;;;;;;9.57;7.97;;;20.90;99.90;;;;;;4118700;28;20030;-82
2023/09/17 08:25:27;;;;;;;11.07;8.98;;;21.00;99.90;;;;;;4127346;28;20260;-81
2023/09/17 08:27:27;;;;;;;10.27;8.60;;;21.00;99.90;;;;;;4125914;28;20521;-81
2023/09/17 08:29:28;;;;;;;10.88;9.10;;;21.00;99.90;;;;;;4131652;28;20045;-81
2023/09/17 08:31:29;;;;;;;9.13;7.72;;;21.00;99.90;;;;;;4122752;28;20453;-81
2023/09/17 08:33:30;;;;;;;9.55;6.80;;;21.10;99.90;;;;;;4121073;28;20403;-81
2023/09/17 08:35:30;;;;;;;9.68;8.23;;;21.20;99.90;;;;;;4121845;28;20049;-79
2023/09/17 08:37:34;;;;;;;12.10;8.50;;;21.20;99.90;;;;;;4122504;28;20030;-79
2023/09/17 08:39:34;;;;;;;11.52;7.47;;;21.30;99.90;;;;;;4125580;28;20046;-79
2023/09/17 08:41:35;;;;;;;8.80;6.40;;;21.30;99.90;;;;;;4122777;28;20042;-78
2023/09/17 08:43:37;;;;;;;9.57;7.00;;;21.40;99.90;;;;;;4125096;28;20114;-79
2023/09/17 08:45:38;;;;;;;8.43;6.78;;;21.50;99.90;;;;;;4124924;28;20651;-81
2023/09/17 08:47:39;;;;;;;9.43;7.43;;;21.50;99.90;;;;;;4119209;28;20065;-79
2023/09/17 08:49:39;;;;;;;9.02;6.60;;;21.50;99.90;;;;;;4129754;28;20397;-78
2023/09/17 08:51:43;;;;;;;12.48;8.00;;;21.60;99.90;;;;;;4132441;28;20044;-78
2023/09/17 08:54:11;;;;;;;11.45;7.68;;;21.60;99.90;;;;;;4126574;28;20700;-77
2023/09/17 08:56:16;;;;;;;7.90;6.03;;;21.70;99.90;;;;;;4128023;28;20495;-80
2023/09/17 08:58:24;;;;;;;9.10;6.75;;;21.70;99.90;;;;;;4129003;28;20069;-80
2023/09/17 09:00:27;;;;;;;8.90;5.78;;;21.80;99.90;;;;;;4126438;28;20665;-81
2023/09/17 09:02:32;;;;;;;8.57;5.80;;;21.90;99.90;;;;;;4127531;28;20035;-81
2023/09/17 09:04:37;;;;;;;6.47;5.15;;;22.00;99.90;;;;;;4121691;28;20105;-80
2023/09/17 09:06:39;;;;;;;7.30;5.40;;;22.10;99.90;;;;;;4134742;28;20085;-81
2023/09/17 09:08:42;;;;;;;6.55;5.15;;;22.20;99.90;;;;;;4128001;28;20045;-82
2023/09/17 09:10:43;;;;;;;6.85;5.40;;;22.30;99.90;;;;;;4132748;28;20042;-82
2023/09/17 09:12:45;;;;;;;7.10;5.10;;;22.40;99.90;;;;;;4121448;28;20066;-83
2023/09/17 09:14:47;;;;;;;7.50;5.75;;;22.50;99.90;;;;;;4124722;28;20073;-77
2023/09/17 09:16:47;;;;;;;11.00;5.47;;;22.60;99.90;;;;;;4118646;28;20128;-80
2023/09/17 09:18:48;;;;;;;5.57;4.45;;;22.70;99.90;;;;;;4111662;28;20337;-80
2023/09/17 09:20:49;;;;;;;4.40;3.63;;;22.80;99.90;;;;;;4130763;28;20034;-80
2023/09/17 09:22:49;;;;;;;4.65;4.03;;;22.80;99.90;;;;;;4119937;28;20043;-79
2023/09/17 09:24:50;;;;;;;6.68;4.07;;;22.90;99.90;;;;;;4120786;28;20034;-78
2023/09/17 09:26:51;;;;;;;4.63;4.13;;;23.00;99.90;;;;;;4121794;28;20047;-79
2023/09/17 09:28:52;;;;;;;4.90;3.97;;;23.00;99.90;;;;;;4114048;28;20038;-79
2023/09/17 09:30:53;;;;;;;4.68;3.95;;;23.00;99.90;;;;;;4128291;28;20483;-81
2023/09/17 09:32:54;;;;;;;5.15;3.70;;;23.00;99.90;;;;;;4127446;28;20498;-76
2023/09/17 09:34:55;;;;;;;5.25;4.30;;;23.10;99.90;;;;;;4117068;28;20048;-78
2023/09/17 09:36:56;;;;;;;4.50;3.60;;;23.00;99.90;;;;;;4128630;28;20045;-80
2023/09/17 09:38:57;;;;;;;3.78;3.28;;;23.00;99.90;;;;;;4116067;28;21992;-79
2023/09/17 09:40:58;;;;;;;4.13;3.47;;;23.10;99.90;;;;;;4120456;28;20038;-78
2023/09/17 09:42:59;;;;;;;8.15;3.38;;;23.00;99.90;;;;;;4112039;28;20042;-77
2023/09/17 09:44:59;;;;;;;4.97;3.00;;;23.00;99.90;;;;;;4119295;28;20042;-77
2023/09/17 09:47:02;;;;;;;5.00;3.45;;;23.00;99.90;;;;;;4127305;28;20022;-77
2023/09/17 09:49:02;;;;;;;;;;;23.00;99.90;;;;;;4126103;28;20482;-78
2023/09/17 09:51:03;;;;;;;5.00;2.92;;;23.10;99.90;;;;;;4125141;28;19964;-78
2023/09/17 09:53:04;;;;;;;4.32;2.95;;;23.10;99.90;;;;;;4130989;28;20399;-77
2023/09/17 09:55:06;;;;;;;4.13;2.78;;;23.20;99.90;;;;;;4122808;28;20043;-79
2023/09/17 09:57:07;;;;;;;3.97;2.83;;;23.30;99.90;;;;;;4117941;28;20387;-78
2023/09/17 09:59:08;;;;;;;4.65;2.63;;;23.30;99.90;;;;;;4123350;28;20141;-78
2023/09/17 10:01:09;;;;;;;3.85;3.03;;;23.40;99.90;;;;;;4120588;28;20041;-76
2023/09/17 10:03:11;;;;;;;3.47;2.87;;;23.40;99.90;;;;;;4121407;28;20045;-76
2023/09/17 10:05:16;;;;;;;8.13;2.63;;;23.50;99.90;;;;;;4125881;28;20047;-76
2023/09/17 10:07:17;;;;;;;3.40;2.22;;;23.50;99.90;;;;;;4125871;28;20434;-76
2023/09/17 10:09:18;;;;;;;3.33;2.30;;;23.50;99.90;;;;;;4125017;28;20062;-76
2023/09/17 10:11:19;;;;;;;3.60;2.60;;;23.60;99.90;;;;;;4122664;28;20037;-77
2023/09/17 10:13:20;;;;;;;4.35;2.90;;;23.60;99.90;;;;;;4127033;28;20042;-77
2023/09/17 10:15:21;;;;;;;3.72;3.00;;;23.70;99.90;;;;;;4120539;28;20425;-75
2023/09/17 10:17:22;;;;;;;4.10;2.75;;;23.60;99.90;;;;;;4125152;28;20039;-77
2023/09/17 10:19:25;;;;;;;4.85;2.65;;;23.60;99.90;;;;;;4126196;28;20487;-68
2023/09/17 10:21:27;;;;;;;3.15;2.35;;;23.60;99.90;;;;;;4123842;28;20124;-67
2023/09/17 10:23:30;;;;;;;5.82;2.45;;;23.60;99.90;;;;;;4122609;28;20482;-67